createdAt,value
2022-12-15T00:00:16.367Z,99856.22
2022-12-15T00:05:37.132Z,99859.09
2022-12-15T00:10:58.217Z,99855.19
2022-12-15T00:16:18.985Z,99870.88
2022-12-15T00:21:40.063Z,99875.00
2022-12-15T00:27:00.716Z,99883.66
2022-12-15T00:32:21.584Z,99875.00
2022-12-15T00:37:42.520Z,99860.94
2022-12-15T00:42:44.766Z,99857.03
2022-12-15T00:47:51.707Z,99878.94
2022-12-15T00:53:12.496Z,99870.25
2022-12-15T00:58:33.398Z,99869.44
2022-12-15T01:03:54.033Z,99870.03
2022-12-15T01:09:15.338Z,99864.88
2022-12-15T01:14:36.274Z,99822.56
2022-12-15T01:19:57.195Z,99822.13
2022-12-15T01:24:59.398Z,99824.81
2022-12-15T01:30:02.545Z,99839.47
2022-12-15T01:35:06.470Z,99815.50
2022-12-15T01:40:32.028Z,99839.28
2022-12-15T01:45:49.198Z,99840.91
2022-12-15T01:51:30.773Z,99820.88
2022-12-15T01:56:38.130Z,99812.84
2022-12-15T02:01:40.859Z,99820.28
2022-12-15T02:06:43.634Z,99819.88
2022-12-15T02:12:26.315Z,99807.91
2022-12-15T02:17:53.472Z,99820.28
2022-12-15T02:23:10.639Z,99819.44
2022-12-15T02:28:46.494Z,99814.72
2022-12-15T02:34:05.477Z,99789.72
2022-12-15T02:39:07.719Z,99790.13
2022-12-15T02:44:20.861Z,99803.34
2022-12-15T02:50:04.808Z,99774.00
2022-12-15T02:55:25.461Z,99786.22
2022-12-15T03:00:29.021Z,99775.25
2022-12-15T03:05:32.288Z,99774.00
2022-12-15T03:10:34.867Z,99792.19
2022-12-15T03:15:37.059Z,99816.94
2022-12-15T03:20:39.350Z,99773.81
2022-12-15T03:25:41.637Z,99805.81
2022-12-15T03:30:44.097Z,99829.38
2022-12-15T03:35:47.184Z,99820.47
2022-12-15T03:40:49.472Z,99816.75
2022-12-15T03:45:51.781Z,99831.00
2022-12-15T03:50:54.481Z,99800.84
2022-12-15T03:55:56.705Z,99798.59
2022-12-15T04:00:59.126Z,99829.34
2022-12-15T04:06:01.353Z,99819.84
2022-12-15T04:11:03.809Z,99830.19
2022-12-15T04:16:06.425Z,99822.97
2022-12-15T04:21:08.673Z,99841.34
2022-12-15T04:26:29.143Z,99859.50
2022-12-15T04:31:51.545Z,99867.16
2022-12-15T04:37:13.421Z,99874.38
2022-12-15T04:42:35.345Z,99864.47
2022-12-15T04:47:56.170Z,99880.97
2022-12-15T04:53:27.045Z,99882.03
2022-12-15T04:58:47.662Z,99848.97
2022-12-15T05:04:08.541Z,99871.06
2022-12-15T05:09:29.400Z,99904.75
2022-12-15T05:14:50.227Z,99874.75
2022-12-15T05:20:11.025Z,99870.03
2022-12-15T05:25:31.834Z,99885.50
2022-12-15T05:30:52.558Z,99912.41
2022-12-15T05:35:59.272Z,99939.66
2022-12-15T05:41:01.875Z,99950.59
2022-12-15T05:46:05.521Z,99963.19
2022-12-15T05:51:10.185Z,99967.56
2022-12-15T05:56:14.734Z,99976.44
2022-12-15T06:01:19.736Z,99957.41
2022-12-15T06:06:22.130Z,100000.19
2022-12-15T06:11:24.583Z,99981.16
2022-12-15T06:16:31.027Z,100007.38
2022-12-15T06:21:36.989Z,100021.28
2022-12-15T06:26:40.622Z,100015.47
2022-12-15T06:31:43.523Z,100004.69
2022-12-15T06:36:46.142Z,100019.56
2022-12-15T06:41:48.414Z,100041.50
2022-12-15T06:46:50.854Z,100038.13
2022-12-15T06:51:53.205Z,100042.28
2022-12-15T06:56:55.447Z,100050.59
2022-12-15T07:01:57.907Z,100059.25
2022-12-15T07:07:00.382Z,100063.22
2022-12-15T07:12:02.936Z,100088.03
2022-12-15T07:17:06.399Z,100102.09
2022-12-15T07:22:08.690Z,100111.59
2022-12-15T07:27:11.089Z,100096.72
2022-12-15T07:32:13.329Z,100116.81
2022-12-15T07:37:16.667Z,100128.41
2022-12-15T07:42:19.926Z,100148.91
2022-12-15T07:47:22.275Z,100146.63
2022-12-15T07:52:24.850Z,100145.19
2022-12-15T07:57:27.061Z,100144.78
2022-12-15T08:02:32.340Z,100189.56
2022-12-15T08:07:34.781Z,100201.13
2022-12-15T08:12:37.054Z,100197.22
2022-12-15T08:17:39.426Z,100210.47
2022-12-15T08:22:42.107Z,100196.22
2022-12-15T08:27:44.358Z,100225.59
2022-12-15T08:32:51.917Z,100237.00
2022-12-15T08:37:54.574Z,100252.72
2022-12-15T08:42:56.875Z,100247.53
2022-12-15T08:48:00.113Z,100239.69
2022-12-15T08:53:29.653Z,100253.53
2022-12-15T08:58:24.848Z,100246.47
2022-12-15T09:03:27.993Z,100242.31
2022-12-15T09:08:31.425Z,100253.00
2022-12-15T09:13:34.489Z,100237.06
2022-12-15T09:18:37.320Z,100249.81
2022-12-15T09:23:40.442Z,100239.41
2022-12-15T09:28:50.220Z,100232.56
2022-12-15T09:33:54.507Z,100239.16
2022-12-15T09:38:57.097Z,100246.63
2022-12-15T09:44:18.901Z,100246.00
2022-12-15T09:49:41.190Z,100248.81
2022-12-15T09:54:45.063Z,100249.63
2022-12-15T10:00:08.036Z,100250.38
2022-12-15T10:11:07.078Z,100234.16
2022-12-15T10:16:28.280Z,100242.44
2022-12-15T10:21:32.968Z,100226.22
2022-12-15T10:26:36.002Z,100231.09
2022-12-15T10:37:05.024Z,100218.47
2022-12-15T10:48:05.306Z,100203.47
2022-12-15T10:53:11.668Z,100205.66
2022-12-15T10:58:22.410Z,100214.47
2022-12-15T11:03:27.531Z,100209.06
2022-12-15T11:14:16.312Z,100209.34
2022-12-15T11:25:33.193Z,100197.22
2022-12-15T12:10:13.989Z,100234.09
2022-12-15T12:15:30.956Z,100227.06
2022-12-15T12:20:56.532Z,100236.72
2022-12-15T12:26:08.703Z,100223.44
2022-12-15T12:31:23.379Z,100224.34
2022-12-15T12:36:25.904Z,100214.84
2022-12-15T12:41:36.811Z,100217.84
2022-12-15T12:46:49.281Z,100199.63
2022-12-15T12:51:55.552Z,100229.88
2022-12-15T12:56:57.849Z,100204.44
2022-12-15T13:02:17.194Z,100239.91
2022-12-15T13:07:41.387Z,100249.22
2022-12-15T13:12:59.776Z,100234.34
2022-12-15T13:18:24.320Z,100248.38
2022-12-15T13:23:26.589Z,100280.69
2022-12-15T13:28:40.705Z,100281.97
2022-12-15T13:33:51.357Z,100285.47
2022-12-15T13:38:56.360Z,100275.00
2022-12-15T13:44:00.912Z,100285.25
2022-12-15T13:49:10.818Z,100295.63
2022-12-15T13:54:25.449Z,100281.63
2022-12-15T13:59:42.944Z,100317.97
2022-12-15T14:04:45.280Z,100305.09
2022-12-15T14:09:50.878Z,100304.81
2022-12-15T14:14:53.208Z,100285.31
2022-12-15T14:19:55.686Z,100314.09
2022-12-15T14:25:13.952Z,100310.06
2022-12-15T14:30:24.009Z,100299.47
2022-12-15T14:35:55.767Z,100318.28
2022-12-15T14:41:01.682Z,100316.81
2022-12-15T14:46:19.889Z,100331.16
2022-12-15T14:51:24.132Z,100349.34
2022-12-15T14:56:33.497Z,100349.03
2022-12-15T15:01:42.984Z,100320.97
2022-12-15T15:03:12.649Z,100231.50
2022-12-15T15:06:50.565Z,100347.84
2022-12-15T15:12:18.537Z,100361.78
2022-12-15T15:17:29.554Z,100359.84
2022-12-15T15:22:42.861Z,100357.84
2022-12-15T15:27:45.171Z,100346.72
2022-12-15T15:32:52.446Z,100376.59
2022-12-15T15:38:03.143Z,100378.13
2022-12-15T15:43:12.421Z,100370.19
2022-12-15T15:48:25.659Z,100392.59
2022-12-15T15:53:32.384Z,100403.88
2022-12-15T15:58:35.628Z,100393.34
2022-12-15T16:03:38.648Z,100408.13
2022-12-15T16:08:44.469Z,100417.72
2022-12-15T16:13:46.781Z,100412.53
2022-12-15T16:18:49.953Z,100402.81
2022-12-15T16:23:53.438Z,100427.69
2022-12-15T16:28:56.002Z,100415.28
2022-12-15T16:33:58.367Z,100427.75
2022-12-15T16:39:00.624Z,100411.59
2022-12-15T16:44:02.873Z,100437.31
2022-12-15T16:49:05.131Z,100450.78
2022-12-15T16:54:08.153Z,100449.16
2022-12-15T16:59:34.926Z,100449.38
2022-12-15T17:04:37.735Z,100440.91
2022-12-15T17:09:41.769Z,100452.94
2022-12-15T17:14:45.435Z,100467.25
2022-12-15T17:20:27.346Z,100473.47
2022-12-15T17:26:00.847Z,100481.38
2022-12-15T17:30:53.353Z,100489.66
2022-12-15T17:36:05.226Z,100473.03
2022-12-15T17:41:23.640Z,100471.53
2022-12-15T17:46:34.996Z,100460.31
2022-12-15T17:51:37.414Z,100477.31
2022-12-15T17:56:39.889Z,100496.16
2022-12-15T18:01:46.389Z,100478.16
2022-12-15T18:06:49.324Z,100498.22
2022-12-15T18:11:51.661Z,100486.56
2022-12-15T18:16:53.922Z,100503.97
2022-12-15T18:21:56.185Z,100517.44
2022-12-15T18:26:59.030Z,100518.03
2022-12-15T18:32:01.424Z,100519.47
2022-12-15T18:37:14.235Z,100537.06
2022-12-15T18:42:19.286Z,100547.63
2022-12-15T18:47:23.820Z,100557.59
2022-12-15T18:52:31.452Z,100556.97
2022-12-15T18:57:39.850Z,100546.59
2022-12-15T19:02:43.157Z,100560.03
2022-12-15T19:07:45.590Z,100559.19
2022-12-15T19:12:47.887Z,100567.47
2022-12-15T19:18:08.673Z,100552.72
2022-12-15T19:23:13.432Z,100571.59
2022-12-15T19:28:22.357Z,100563.72
2022-12-15T19:33:24.784Z,100564.66
2022-12-15T19:38:30.696Z,100550.25
2022-12-15T19:43:33.283Z,100586.16
2022-12-15T19:48:35.650Z,100583.66
2022-12-15T19:53:38.272Z,100572.41
2022-12-15T19:58:40.568Z,100582.78
2022-12-15T20:03:44.353Z,100579.69
2022-12-15T20:08:48.862Z,100576.34
2022-12-15T20:13:52.384Z,100593.53
2022-12-15T20:18:56.458Z,100584.28
2022-12-15T20:24:12.875Z,100598.81
2022-12-15T20:29:30.453Z,100584.22
2022-12-15T20:34:32.820Z,100595.38
2022-12-15T20:39:35.118Z,100577.19
2022-12-15T20:44:37.369Z,100585.88
2022-12-15T20:49:39.737Z,100567.78
2022-12-15T20:54:43.391Z,100603.59
2022-12-15T20:59:46.426Z,100602.34
2022-12-15T21:04:49.375Z,100578.59
2022-12-15T21:09:52.101Z,100593.63
2022-12-15T21:14:54.949Z,100602.41
2022-12-15T21:19:57.133Z,100594.56
2022-12-15T21:25:00.844Z,100585.91
2022-12-15T21:30:07.174Z,100610.41
2022-12-15T21:35:15.302Z,100624.88
2022-12-15T21:40:22.383Z,100621.47
2022-12-15T21:45:26.736Z,100634.34
2022-12-15T21:50:29.319Z,100648.97
2022-12-15T21:55:32.418Z,100643.25
2022-12-15T22:00:34.751Z,100627.41
2022-12-15T22:05:37.240Z,100654.63
2022-12-15T22:10:39.921Z,100624.91
2022-12-15T22:15:42.855Z,100636.41
2022-12-15T22:20:46.149Z,100640.75
2022-12-15T22:25:53.076Z,100634.84
2022-12-15T22:30:57.429Z,100644.56
2022-12-15T22:35:59.946Z,100645.59
2022-12-15T22:41:02.567Z,100653.91
2022-12-15T22:46:07.569Z,100644.09
2022-12-15T22:51:14.847Z,100660.75
2022-12-15T22:56:32.742Z,100651.03
2022-12-15T23:01:35.756Z,100641.69
2022-12-15T23:06:38.072Z,100639.38
2022-12-15T23:11:41.840Z,100636.59
2022-12-15T23:16:46.299Z,100616.22
2022-12-15T23:21:48.595Z,100624.00
2022-12-15T23:26:50.883Z,100635.81
2022-12-15T23:31:54.056Z,100614.13
2022-12-15T23:36:56.372Z,100598.56
2022-12-15T23:41:58.653Z,100645.69
2022-12-15T23:47:01.347Z,100632.00
2022-12-15T23:52:03.653Z,100607.63
2022-12-15T23:57:05.841Z,100648.38
